Latest Weather Observations for Liawenee

IDT60801

Issued at 6:05 am EST Thursday 2 October 2014 (issued every 30 minutes, with the page automatically refreshed every 10 minutes)

About weather observations | Map of weather stations | Latest weather observations for TAS | Other Formats
Station Details ID: 096033 Name: LIAWENEE Lat: -41.90 Lon: 146.67 Height: 1057.0 m
Data from the previous 72 hours. | See also: Recent months at Liawenee
Date/Time
EST
Temp
°C
App
Temp
°C
Dew
Point
Rel
Hum
%
Delta-T
°C
Wind Press
QNH
hPa
Press
MSL
hPa
Rain
since 9 am
mm
Dir
 
Spd
km/h
Gust
km/h
Spd
kts
Gust
kts
02/06:00am 3.4 -4.0 1.8 89 0.7 W 30 41 16 22 1012.7 1013.2 0.2
02/05:30am 3.8 -4.9 1.8 87 0.8 W 37 52 20 28 1012.5 1013.0 0.2
02/05:00am 3.6 -5.2 1.6 87 0.8 W 37 48 20 26 1012.5 1013.0 0.2
02/04:30am 3.8 -5.7 1.7 86 0.9 W 41 54 22 29 1012.2 1012.6 0.2
02/04:00am 4.0 -5.9 1.9 86 0.9 W 43 56 23 30 1012.0 1012.4 0.2
02/03:33am 4.0 -4.3 1.9 86 0.9 W 35 54 19 29 1012.0 1012.4 0.2
02/03:30am 4.0 -3.9 2.0 87 0.8 W 33 44 18 24 1012.1 1012.5 0.2
02/03:00am 3.8 -2.4 2.3 90 0.6 W 24 32 13 17 1012.2 1012.6 0.2
02/02:30am 3.7 -3.3 2.2 90 0.6 W 28 35 15 19 1012.3 1012.7 0.2
02/02:00am 4.0 -2.6 2.2 88 0.8 W 26 35 14 19 1012.5 1013.0 0.2
02/01:30am 4.4 -3.3 2.4 87 0.9 W 32 39 17 21 1012.9 1013.3 0.2
02/01:00am 4.2 -1.0 2.2 87 0.9 W 19 26 10 14 1013.3 1013.7 0.2
02/12:30am 4.4 -1.8 2.4 87 0.9 W 24 32 13 17 1013.5 1014.0 0.2
02/12:00am 4.4 -1.7 2.8 89 0.7 W 24 32 13 17 1014.0 1014.4 0.2
 
Date/Time
EST
Temp
°C
App
Temp
°C
Dew
Point
Rel
Hum
%
Delta-T
°C
Wind Press
QNH
hPa
Press
MSL
hPa
Rain
since 9 am
mm
Dir
 
Spd
km/h
Gust
km/h
Spd
kts
Gust
kts
01/11:30pm 4.6 -1.9 2.9 89 0.7 W 26 32 14 17 1014.0 1014.4 0.2
01/11:00pm 4.4 -3.4 2.8 89 0.7 W 33 46 18 25 1013.9 1014.3 0.2
01/10:30pm 4.1 -5.3 2.6 90 0.6 W 41 52 22 28 1013.4 1013.9 0.2
01/10:00pm 4.1 -4.9 2.3 88 0.8 W 39 54 21 29 1013.4 1013.9 0.2
01/09:36pm 4.1 -6.7 2.1 87 0.9 W 48 67 26 36 1013.5 1014.0 0.2
01/09:30pm 4.0 -6.3 2.7 91 0.6 W 46 61 25 33 1013.5 1014.0 0.2
01/09:23pm 3.9 -5.8 2.6 91 0.6 W 43 61 23 33 1013.4 1013.9 0.2
01/09:00pm 3.6 -4.3 2.4 92 0.5 W 33 50 18 27 1013.7 1014.2 0.2
01/08:30pm 3.2 -2.2 2.2 93 0.4 W 20 32 11 17 1014.4 1014.9 0.2
01/08:00pm 3.0 -2.5 2.0 93 0.4 W 20 28 11 15 1014.9 1015.3 0.2
01/07:30pm 2.8 -2.5 1.8 93 0.4 W 19 26 10 14 1015.0 1015.5 0.2
01/07:00pm 2.7 -2.9 1.5 92 0.5 WSW 20 32 11 17 1015.1 1015.6 0.2
01/06:30pm 2.5 -4.6 1.2 91 0.5 WSW 28 39 15 21 1014.9 1015.3 0.2
01/06:00pm 2.5 -4.2 1.3 92 0.5 WSW 26 35 14 19 1015.1 1015.6 0.2
01/05:30pm 2.4 -5.1 1.2 92 0.5 WSW 30 39 16 21 1014.6 1015.1 0.2
01/05:00pm 3.2 -3.6 0.8 84 1.0 WSW 26 39 14 21 1014.7 1015.2 0.2
01/04:30pm 3.1 -4.8 1.0 86 0.9 WSW 32 43 17 23 1014.6 1015.1 0.2
01/04:00pm 3.8 -4.4 0.5 79 1.3 WSW 33 46 18 25 1014.4 1014.9 0.2
01/03:30pm 4.8 -5.0 -0.2 70 2.0 WSW 41 52 22 28 1014.0 1014.4 0.2
01/03:00pm 4.1 -6.2 -0.7 71 1.9 WSW 43 54 23 29 1014.0 1014.4 0.2
01/02:30pm 3.9 -4.8 -0.3 74 1.7 WSW 35 52 19 28 1013.9 1014.3 0.2
01/02:01pm 4.9 -3.8 -0.3 69 2.1 W 35 56 19 30 1013.7 1014.2 0.2
01/02:00pm 5.3 -2.9 0.1 69 2.1 W 33 50 18 27 1013.7 1014.2 0.2
01/01:32pm 4.6 -4.4 -0.2 71 1.9 WSW 37 57 20 31 1013.7 1014.2 0.2
01/01:30pm 4.8 -3.9 -0.4 69 2.1 WSW 35 50 19 27 1013.7 1014.2 0.2
01/01:00pm 5.2 -3.6 1.3 76 1.7 WSW 37 52 20 28 1013.7 1014.2 0.2
01/12:40pm 4.2 -4.8 0.2 75 1.6 WSW 37 56 20 30 1013.4 1013.9 0.2
01/12:30pm 4.6 -3.9 0.6 75 1.7 WSW 35 46 19 25 1013.4 1013.9 0.2
01/12:03pm 3.4 -5.8 -1.0 73 1.7 WSW 37 59 20 32 1013.9 1014.3 0.2
01/12:00pm 3.6 -5.8 -0.2 76 1.5 WSW 39 50 21 27 1013.9 1014.3 0.2
01/11:31am 2.8 -5.8 0.4 84 1.0 WSW 35 54 19 29 1013.2 1013.6 0.2
01/11:30am 2.7 -6.3 0.4 85 0.9 WSW 37 54 20 29 1013.2 1013.6 0.2
01/11:00am 3.1 -5.4 0.7 84 1.0 WSW 35 52 19 28 1012.9 1013.3 0.2
01/10:30am 2.3 -6.0 0.0 85 0.9 WSW 33 46 18 25 1013.0 1013.4 0.0
01/10:00am 1.9 -6.1 0.4 90 0.6 SW 32 44 17 24 1013.2 1013.6 0.0
01/09:30am 1.5 -6.5 0.2 91 0.5 WSW 32 43 17 23 1013.2 1014.5 0.0
01/09:00am 1.0 -6.8 -0.6 89 0.6 WSW 30 35 16 19 1013.1 1014.4 13.6
01/08:30am 0.6 -7.5 -0.3 94 0.3 WSW 32 41 17 22 1012.6 1013.9 13.6
01/08:00am 0.1 -9.0 -0.5 96 0.2 WSW 37 50 20 27 1012.0 1013.2 13.6
01/07:41am -0.1 -7.9 -0.7 96 0.2 SW 30 52 16 28 1011.9 1013.1 13.6
01/07:30am -0.4 -8.2 -0.8 97 0.1 WSW 30 37 16 20 1011.8 1013.0 13.6
01/07:00am -0.2 -7.2 -0.5 98 0.1 SW 26 35 14 19 1011.3 1012.5 13.0
01/06:30am -1.4 -8.9 -1.7 98 0.0 SW 28 35 15 19 1010.5 1011.8 11.8
01/06:00am -1.7 -9.3 -2.0 98 0.0 WSW 28 37 15 20 1009.6 1010.8 11.8
01/05:36am -1.5 -9.4 -1.6 99 0.0 SW 30 50 16 27 1008.9 1010.0 11.8
01/05:30am -1.7 -9.3 -1.8 99 0.0 SW 28 39 15 21 1008.8 1009.9 11.6
01/05:00am -2.0 -8.8 -2.1 99 -0.1 SW 24 35 13 19 1008.0 1009.1 11.6
01/04:30am -1.9 -11.2 -2.0 99 -0.1 SW 37 50 20 27 1007.5 1008.7 11.4
01/04:26am -1.9 -10.8 -2.0 99 -0.1 SW 35 48 19 26 1007.5 1008.7 11.2
01/04:00am -1.7 -8.1 -1.8 99 0.0 SW 22 30 12 16 1007.1 1008.2 11.0
01/03:30am -1.9 -10.2 -2.0 99 -0.1 SSW 32 41 17 22 1006.5 1007.7 10.6
01/03:08am -1.7 -9.3 -1.8 99 0.0 WSW 28 46 15 25 1006.3 1007.4 10.6
01/03:00am -1.8 -9.0 -1.9 99 -0.1 WSW 26 35 14 19 1006.1 1007.2 10.4
01/02:30am -1.6 -9.9 -1.9 98 0.0 WSW 32 46 17 25 1005.5 1006.6 10.4
01/02:22am -1.5 -9.1 -2.1 96 0.1 WSW 28 46 15 25 1005.3 1006.4 10.4
01/02:00am -2.1 -8.6 -2.5 97 0.0 WSW 22 30 12 16 1005.0 1006.1 10.4
01/01:30am -2.1 -9.7 -2.5 97 0.0 WSW 28 39 15 21 1004.9 1006.0 10.4
01/01:00am -1.7 -8.5 -2.0 98 0.0 WSW 24 35 13 19 1004.8 1005.8 10.0
01/12:30am -1.9 -8.0 -2.5 96 0.1 WSW 20 26 11 14 1004.2 1005.3 10.0
01/12:00am -1.6 -8.8 -2.0 97 0.1 WSW 26 33 14 18 1003.8 1004.8 10.0
 
Date/Time
EST
Temp
°C
App
Temp
°C
Dew
Point
Rel
Hum
%
Delta-T
°C
Wind Press
QNH
hPa
Press
MSL
hPa
Rain
since 9 am
mm
Dir
 
Spd
km/h
Gust
km/h
Spd
kts
Gust
kts
30/11:30pm -2.1 -8.6 -2.6 96 0.1 WSW 22 30 12 16 1003.3 1004.4 10.0
30/11:00pm -1.7 -10.6 -2.3 96 0.1 WSW 35 46 19 25 1002.7 1003.7 10.0
30/10:47pm -1.5 -9.1 -2.5 93 0.3 WSW 28 50 15 27 1002.3 1003.3 10.0
30/10:30pm -2.0 -8.6 -3.3 91 0.4 SW 22 30 12 16 1002.2 1003.2 10.0
30/10:00pm -2.0 -8.0 -3.3 91 0.4 WSW 19 26 10 14 1001.7 1002.7 10.0
30/09:30pm -1.2 -8.1 -2.5 91 0.4 SW 24 35 13 19 1001.7 1002.7 10.0
30/09:00pm -1.0 -9.0 -2.1 92 0.4 WSW 30 41 16 22 1000.9 1001.9 10.0
30/08:31pm -0.7 -9.0 -1.4 95 0.2 WSW 32 50 17 27 1000.4 1001.4 10.0
30/08:30pm -0.8 -8.7 -1.5 95 0.2 WSW 30 39 16 21 1000.3 1001.3 10.0
30/08:00pm -0.7 -9.5 -1.4 95 0.2 WSW 35 48 19 26 999.8 1000.7 10.0
30/07:30pm -1.0 -8.9 -1.8 94 0.2 WSW 30 39 16 21 998.6 999.5 10.0
30/07:00pm -0.7 -9.6 -1.7 93 0.3 SW 35 46 19 25 998.1 999.0 10.0
30/06:38pm 0.1 -9.4 -0.6 95 0.3 SW 39 61 21 33 997.8 998.7 10.0
30/06:30pm 0.6 -7.5 0.0 96 0.2 SW 32 44 17 24 997.5 998.3 10.0
30/06:00pm 1.2 -6.4 0.5 95 0.3 WSW 30 44 16 24 996.6 997.4 10.0
30/05:30pm 2.2 -5.7 1.0 92 0.5 WSW 32 44 17 24 995.9 996.7 10.0
30/05:09pm 2.2 -6.2 1.3 94 0.4 WSW 35 54 19 29 995.9 996.7 10.0
30/05:00pm 2.4 -6.4 1.2 92 0.5 WSW 37 54 20 29 995.6 996.4 10.0
30/04:30pm 3.7 -3.6 2.7 93 0.4 W 30 46 16 25 994.6 995.4 9.8
30/04:10pm 4.6 -2.6 3.1 90 0.7 W 30 48 16 26 994.0 994.8 9.6
30/04:00pm 4.9 -2.3 3.2 89 0.8 WNW 30 44 16 24 994.0 994.8 9.6
30/03:30pm 4.9 -0.7 3.7 92 0.5 WNW 22 37 12 20 993.1 993.9 9.6
30/03:00pm 5.0 -0.9 3.7 91 0.6 W 24 33 13 18 994.0 994.8 9.4
30/02:30pm 4.2 -1.4 3.5 95 0.3 W 22 30 12 16 994.4 995.2 9.4
30/02:00pm 4.2 -3.3 3.2 93 0.4 W 32 43 17 23 994.9 995.7 8.6
30/01:50pm 5.1 -1.6 3.8 91 0.6 WNW 28 48 15 26 994.6 995.4 8.0
30/01:30pm 6.0 -0.5 4.5 90 0.7 NW 28 43 15 23 994.7 995.5 6.0
30/01:17pm 6.5 0.0 4.8 89 0.8 NW 28 52 15 28 994.7 995.5 5.0
30/01:00pm 7.0 1.1 5.8 92 0.6 NW 26 44 14 24 994.6 995.4 4.2
30/12:32pm 7.2 0.8 5.3 88 0.9 NW 28 48 15 26 995.0 995.8 3.8
30/12:30pm 7.2 1.2 5.3 88 0.9 NW 26 48 14 26 995.0 995.8 3.8
30/12:13pm 7.0 0.7 5.5 90 0.7 NW 28 52 15 28 995.1 996.0 3.8
30/12:00pm 6.9 1.3 5.2 89 0.8 NW 24 46 13 25 995.3 996.2 3.4
30/11:30am 6.3 -0.1 5.1 92 0.6 WNW 28 44 15 24 996.6 997.4 2.6
30/11:19am 6.2 -0.3 4.7 90 0.7 NW 28 46 15 25 996.7 997.5 1.8
30/11:00am 7.8 2.8 6.4 91 0.7 NW 22 39 12 21 996.8 997.7 0.4
30/10:37am 8.5 2.4 6.8 89 0.8 NNW 28 46 15 25 997.1 998.0 0.0
30/10:30am 8.4 1.4 6.2 86 1.1 NNW 32 46 17 25 997.2 998.1 0.0
30/10:00am 8.9 1.8 5.6 80 1.6 NNW 32 54 17 29 997.6 998.5 0.0
30/09:30am 8.4 1.0 5.2 80 1.5 NNW 33 57 18 31 997.9 998.8 0.0
30/09:00am 6.9 -0.4 4.7 86 1.0 NNW 32 56 17 30 998.7 999.6 0.0
30/08:30am 7.5 0.1 3.9 78 1.7 NNW 32 56 17 30 999.1 1000.0 0.0
30/08:00am 6.4 -1.0 4.1 85 1.1 NW 32 52 17 28 1000.1 1001.1 0.0
30/07:30am 6.6 -2.0 2.7 76 1.7 NW 37 59 20 32 999.7 1000.6 0.0
30/07:00am 5.7 -1.8 3.4 85 1.0 NW 32 50 17 27 1000.1 1001.1 0.0
30/06:33am 5.6 -2.0 2.9 83 1.2 NW 32 50 17 27 1000.4 1001.4 0.0
30/06:30am 5.6 -2.2 2.8 82 1.2 NW 33 50 18 27 1000.6 1001.5 0.0
30/06:00am 5.5 -2.1 2.8 83 1.2 NW 32 56 17 30 1000.9 1001.9 0.0
30/05:32am 5.1 -1.7 3.0 86 0.9 NW 28 48 15 26 1001.1 1002.1 0.0
30/05:30am 4.9 -2.0 2.8 86 0.9 NW 28 44 15 24 1001.1 1002.1 0.0
30/05:00am 4.4 -2.5 2.4 87 0.9 NNW 28 48 15 26 1001.4 1002.4 0.0
30/04:58am 4.6 -2.3 2.6 87 0.9 NNW 28 48 15 26 1001.4 1002.4 0.0
30/04:30am 4.4 -2.1 2.4 87 0.9 NW 26 39 14 21 1001.7 1002.7 0.0
30/04:00am 4.8 -1.3 2.7 86 0.9 NW 24 43 13 23 1002.1 1003.1 0.0
30/03:41am 5.0 -1.9 2.7 85 1.0 NW 28 50 15 27 1002.3 1003.3 0.0
30/03:30am 5.0 -1.9 2.7 85 1.0 NW 28 43 15 23 1002.6 1003.6 0.0
30/03:08am 5.2 -2.1 2.6 83 1.1 NW 30 48 16 26 1002.9 1003.9 0.0
30/03:00am 5.2 -2.1 2.4 82 1.2 NW 30 44 16 24 1003.1 1004.1 0.0
30/02:30am 5.5 -1.5 2.0 78 1.5 NW 28 46 15 25 1003.6 1004.6 0.0
30/02:00am 5.4 -1.6 2.2 80 1.4 NW 28 52 15 28 1004.2 1005.3 0.0
30/01:31am 5.8 -1.1 2.6 80 1.4 NW 28 52 15 28 1004.7 1005.7 0.0
30/01:30am 5.8 -1.1 2.6 80 1.4 NW 28 44 15 24 1004.7 1005.7 0.0
30/01:19am 5.8 -1.0 3.1 83 1.2 NW 28 50 15 27 1004.9 1006.0 0.0
30/01:00am 5.9 -1.3 3.2 83 1.2 NW 30 46 16 25 1005.0 1006.1 0.0
30/12:30am 5.9 -0.8 3.6 85 1.0 NW 28 43 15 23 1005.1 1006.2 0.0
30/12:00am 5.8 -1.4 3.1 83 1.2 NW 30 50 16 27 1005.3 1006.4 0.0
 
Date/Time
EST
Temp
°C
App
Temp
°C
Dew
Point
Rel
Hum
%
Delta-T
°C
Wind Press
QNH
hPa
Press
MSL
hPa
Rain
since 9 am
mm
Dir
 
Spd
km/h
Gust
km/h
Spd
kts
Gust
kts
29/11:33pm 5.8 -1.8 3.0 82 1.2 WNW 32 57 17 31 1005.3 1006.4 0.0
29/11:30pm 5.9 -1.6 3.2 83 1.2 NW 32 46 17 25 1005.3 1006.4 0.0
29/11:00pm 5.7 -1.5 3.2 84 1.1 NW 30 52 16 28 1005.7 1006.7 0.0
29/10:33pm 5.5 -1.4 2.7 82 1.2 NW 28 50 15 27 1005.9 1007.0 0.0
29/10:30pm 5.4 -1.5 2.4 81 1.3 NW 28 43 15 23 1005.9 1007.0 0.0
29/10:10pm 5.7 -1.2 2.5 80 1.4 NW 28 46 15 25 1005.8 1006.9 0.0
29/10:00pm 5.8 -1.5 2.6 80 1.4 NW 30 46 16 25 1005.8 1006.9 0.0
29/09:32pm 5.7 -1.2 2.5 80 1.4 NW 28 54 15 29 1006.0 1007.1 0.0
29/09:30pm 5.6 -0.9 2.6 81 1.3 NW 26 43 14 23 1006.0 1007.1 0.0
29/09:24pm 5.6 -1.3 2.8 82 1.2 NW 28 54 15 29 1006.1 1007.2 0.0
29/09:00pm 5.3 -1.6 2.7 83 1.1 NW 28 44 15 24 1006.1 1007.2 0.0
29/08:30pm 5.1 -1.8 2.8 85 1.0 NW 28 44 15 24 1005.9 1007.0 0.0
29/08:00pm 5.1 -1.8 2.3 82 1.2 NW 28 43 15 23 1006.2 1007.3 0.0
29/07:30pm 4.8 -2.3 1.5 79 1.4 NW 28 44 15 24 1005.8 1006.9 0.0
29/07:00pm 5.0 -2.6 0.8 74 1.8 WNW 30 56 16 30 1005.5 1006.6 0.0
29/06:30pm 5.4 -1.8 0.6 71 2.0 WNW 28 46 15 25 1005.2 1006.3 0.0
29/06:00pm 6.2 -1.4 0.3 66 2.5 WNW 30 52 16 28 1005.0 1006.1 0.0
29/05:30pm 6.9 -2.1 0.4 63 2.7 WNW 37 59 20 32 1005.0 1006.1 0.0
29/05:01pm 8.2 0.0 0.2 57 3.4 WNW 33 52 18 28 1004.5 1005.6 0.0
29/05:00pm 8.3 -0.3 0.3 57 3.4 WNW 35 52 19 28 1004.5 1005.6 0.0
29/04:30pm 9.1 0.6 0.6 55 3.7 WNW 35 54 19 29 1003.9 1004.9 0.0
29/04:00pm 9.5 0.9 0.4 53 3.9 WNW 35 59 19 32 1004.1 1005.2 0.0
29/03:30pm 10.1 1.7 1.5 55 3.8 WNW 35 54 19 29 1004.5 1005.6 0.0
29/03:19pm 9.8 0.5 0.9 54 3.9 WNW 39 57 21 31 1004.5 1005.6 0.0
29/03:00pm 9.8 1.5 1.9 58 3.6 WNW 35 50 19 27 1005.0 1006.1 0.0
29/02:30pm 10.2 1.8 1.6 55 3.8 WNW 35 57 19 31 1005.2 1006.3 0.0
29/02:00pm 9.8 0.5 0.4 52 4.1 WNW 39 57 21 31 1005.3 1006.4 0.0
29/01:31pm 10.4 1.2 1.5 54 4.0 WNW 39 61 21 33 1005.5 1006.6 0.0
29/01:30pm 10.5 1.7 1.3 53 4.1 WNW 37 54 20 29 1005.5 1006.6 0.0
29/01:00pm 10.7 3.2 1.0 51 4.3 W 30 48 16 26 1005.7 1006.7 0.0
29/12:37pm 10.2 2.3 0.8 52 4.1 WNW 32 50 17 27 1005.9 1007.0 0.0
29/12:30pm 9.8 1.6 0.4 52 4.1 WNW 33 50 18 27 1006.0 1007.1 0.0
29/12:11pm 10.5 3.5 1.9 55 3.9 WNW 28 46 15 25 1006.2 1007.3 0.0
29/12:00pm 10.0 2.2 2.6 60 3.4 W 33 48 18 26 1006.0 1007.1 0.0
29/11:30am 9.5 1.7 1.4 57 3.6 W 32 44 17 24 1005.8 1006.9 0.0
29/11:00am 8.5 0.5 0.7 58 3.4 WNW 32 50 17 27 1005.8 1006.9 0.0
29/10:30am 7.6 -0.5 -0.1 58 3.2 WNW 32 50 17 27 1005.5 1006.6 0.0
29/10:02am 7.1 -1.8 0.5 63 2.8 W 37 56 20 30 1005.2 1006.3 0.0
29/10:00am 7.2 -2.0 1.1 65 2.6 W 39 56 21 30 1005.3 1006.4 0.0
29/09:31am 5.9 -4.5 -0.4 64 2.6 W 44 67 24 36 1005.1 1006.2 0.0
29/09:30am 6.1 -4.3 -0.2 64 2.6 W 44 59 24 32 1005.0 1006.1 0.0
29/09:00am 5.6 -4.1 0.4 69 2.2 W 41 59 22 32 1004.5 1005.6 3.6
29/08:31am 5.2 -3.8 0.4 71 2.0 W 37 59 20 32 1004.4 1005.5 3.6
29/08:30am 5.1 -3.4 0.7 73 1.8 W 35 52 19 28 1004.4 1005.5 3.6
29/08:00am 4.7 -4.2 1.0 77 1.6 W 37 52 20 28 1004.0 1005.0 3.6
29/07:30am 3.8 -4.2 0.5 79 1.3 W 32 46 17 25 1003.6 1004.6 3.6
29/07:00am 3.2 -5.0 0.4 82 1.1 W 33 46 18 25 1003.2 1004.2 3.6
29/06:30am 2.6 -4.5 1.1 90 0.6 W 28 37 15 20 1002.7 1003.7 3.6

Other Formats:

Comma delimited format used in spreadsheet applications
http://www.bom.gov.au/fwo/IDT60801/IDT60801.95959.axf

JavaScript Object Notation format (JSON) in row-major order
http://www.bom.gov.au/fwo/IDT60801/IDT60801.95959.json